createdAt,value
2019-06-01T00:00:49.164Z,85.70
2019-06-01T00:03:16.716Z,85.90
2019-06-01T00:05:44.611Z,85.30
2019-06-01T00:08:12.333Z,85.40
2019-06-01T00:10:41.039Z,84.90
2019-06-01T00:13:08.801Z,85.30
2019-06-01T00:15:36.332Z,84.90
2019-06-01T00:18:03.877Z,85.80
2019-06-01T00:20:31.412Z,86.90
2019-06-01T00:22:58.965Z,87.00
2019-06-01T00:25:26.813Z,87.10
2019-06-01T00:27:54.360Z,86.40
2019-06-01T00:30:26.857Z,86.40
2019-06-01T00:32:51.416Z,86.70
2019-06-01T00:35:19.360Z,87.00
2019-06-01T00:37:47.595Z,86.40
2019-06-01T00:40:15.308Z,86.50
2019-06-01T00:42:44.026Z,86.50
2019-06-01T00:45:11.789Z,87.00
2019-06-01T00:47:39.344Z,87.40
2019-06-01T00:50:07.221Z,87.60
2019-06-01T00:52:34.772Z,88.20
2019-06-01T00:55:02.473Z,88.30
2019-06-01T00:57:30.020Z,88.70
2019-06-01T00:59:57.560Z,87.40
2019-06-01T01:02:25.115Z,87.20
2019-06-01T01:05:09.485Z,87.80
2019-06-01T01:07:38.240Z,88.20
2019-06-01T01:10:05.956Z,88.40
2019-06-01T01:12:35.150Z,88.80
2019-06-01T01:15:03.580Z,88.70
2019-06-01T01:17:31.114Z,88.90
2019-06-01T01:19:58.644Z,88.90
2019-06-01T01:22:26.176Z,88.10
2019-06-01T01:24:54.579Z,88.40
2019-06-01T01:27:22.232Z,89.50
2019-06-01T01:29:50.892Z,89.50
2019-06-01T01:32:18.602Z,89.60
2019-06-01T01:34:47.312Z,89.80
2019-06-01T01:37:14.997Z,89.10
2019-06-01T01:39:42.536Z,88.80
2019-06-01T01:42:10.345Z,90.00
2019-06-01T01:44:37.893Z,89.90
2019-06-01T01:47:05.429Z,90.00
2019-06-01T01:49:32.978Z,89.80
2019-06-01T01:52:01.619Z,90.30
2019-06-01T01:54:29.308Z,89.50
2019-06-01T01:56:56.848Z,89.30
2019-06-01T01:59:24.396Z,89.20
2019-06-01T02:01:52.527Z,89.60
2019-06-01T02:04:20.264Z,90.10
2019-06-01T02:06:47.799Z,90.00
2019-06-01T02:09:15.350Z,89.70
2019-06-01T02:11:42.921Z,89.60
2019-06-01T02:14:10.512Z,90.10
2019-06-01T02:16:38.046Z,90.20
2019-06-01T02:19:05.597Z,90.30
2019-06-01T02:21:33.132Z,90.10
2019-06-01T02:24:01.220Z,90.00
2019-06-01T02:26:28.995Z,89.90
2019-06-01T02:28:57.296Z,90.10
2019-06-01T02:31:40.472Z,90.30
2019-06-01T02:33:56.128Z,90.10
2019-06-01T02:36:23.561Z,90.10
2019-06-01T02:38:51.108Z,90.20
2019-06-01T02:41:18.945Z,90.40
2019-06-01T02:43:46.726Z,90.40
2019-06-01T02:46:14.261Z,90.50
2019-06-01T02:48:41.796Z,90.20
2019-06-01T02:51:09.344Z,90.30
2019-06-01T02:53:36.877Z,90.10
2019-06-01T02:56:04.442Z,90.10
2019-06-01T02:58:31.968Z,90.50
2019-06-01T03:01:05.166Z,90.50
2019-06-01T03:03:32.888Z,90.20
2019-06-01T03:06:01.382Z,90.70
2019-06-01T03:08:28.956Z,90.70
2019-06-01T03:10:57.587Z,90.10
2019-06-01T03:13:25.207Z,90.00
2019-06-01T03:15:53.073Z,90.40
2019-06-01T03:18:20.609Z,90.50
2019-06-01T03:20:48.157Z,90.80
2019-06-01T03:23:16.998Z,90.70
2019-06-01T03:25:46.458Z,91.50
2019-06-01T03:28:15.474Z,91.40
2019-06-01T03:30:45.377Z,91.40
2019-06-01T03:33:14.104Z,91.00
2019-06-01T03:35:41.536Z,90.80
2019-06-01T03:38:09.300Z,91.30
2019-06-01T03:40:36.888Z,91.20
2019-06-01T03:43:04.441Z,91.20
2019-06-01T03:45:31.977Z,90.90
2019-06-01T03:48:00.498Z,91.20
2019-06-01T03:50:28.137Z,91.50
2019-06-01T03:52:55.693Z,91.40
2019-06-01T03:55:23.226Z,91.20
2019-06-01T03:57:51.273Z,91.20
2019-06-01T04:00:18.809Z,91.30
2019-06-01T04:02:46.645Z,91.30
2019-06-01T04:05:14.181Z,91.10
2019-06-01T04:07:41.728Z,91.20
2019-06-01T04:10:10.047Z,91.10
2019-06-01T04:12:37.725Z,91.90
2019-06-01T04:15:10.239Z,91.50
2019-06-01T04:17:34.578Z,91.40
2019-06-01T04:20:02.367Z,91.50
2019-06-01T04:22:29.891Z,91.50
2019-06-01T04:24:57.440Z,91.80
2019-06-01T04:27:24.997Z,91.40
2019-06-01T04:29:52.535Z,91.40
2019-06-01T04:32:20.061Z,91.40
2019-06-01T04:34:47.885Z,91.40
2019-06-01T04:37:15.430Z,91.60
2019-06-01T04:39:42.968Z,91.80
2019-06-01T04:42:11.798Z,91.90
2019-06-01T04:44:39.894Z,92.30
2019-06-01T04:47:09.150Z,91.90
2019-06-01T04:49:36.768Z,91.80
2019-06-01T04:52:04.658Z,91.70
2019-06-01T04:54:32.328Z,91.80
2019-06-01T04:56:59.871Z,91.90
2019-06-01T04:59:27.681Z,92.00
2019-06-01T05:01:55.229Z,92.00
2019-06-01T05:04:22.765Z,92.10
2019-06-01T05:06:50.321Z,91.90
2019-06-01T05:09:17.865Z,91.80
2019-06-01T05:11:45.411Z,91.90
2019-06-01T05:14:13.782Z,92.10
2019-06-01T05:16:41.476Z,92.00
2019-06-01T05:19:10.134Z,91.50
2019-06-01T05:21:38.173Z,91.40
2019-06-01T05:24:06.641Z,91.20
2019-06-01T05:26:34.225Z,91.00
2019-06-01T05:29:01.809Z,91.10
2019-06-01T05:31:29.385Z,91.20
2019-06-01T05:33:56.932Z,91.20
2019-06-01T05:36:24.761Z,91.70
2019-06-01T05:38:52.308Z,91.40
2019-06-01T05:41:20.037Z,91.40
2019-06-01T05:43:47.681Z,91.20
2019-06-01T05:46:16.100Z,91.20
2019-06-01T05:48:43.740Z,91.00
2019-06-01T05:51:13.729Z,90.80
2019-06-01T05:53:40.589Z,90.50
2019-06-01T05:56:08.233Z,90.50
2019-06-01T05:58:35.781Z,90.80
2019-06-01T06:01:03.320Z,91.10
2019-06-01T06:03:39.982Z,91.00
2019-06-01T06:06:19.957Z,91.00
2019-06-01T06:08:47.560Z,90.90
2019-06-01T06:11:15.096Z,90.60
2019-06-01T06:13:42.645Z,91.20
2019-06-01T06:16:11.551Z,91.00
2019-06-01T06:18:39.206Z,90.80
2019-06-01T06:21:06.743Z,90.70
2019-06-01T06:23:34.370Z,90.60
2019-06-01T06:26:01.902Z,90.60
2019-06-01T06:28:29.449Z,90.70
2019-06-01T06:30:57.065Z,90.70
2019-06-01T06:33:24.950Z,90.50
2019-06-01T06:35:52.489Z,90.60
2019-06-01T06:38:20.112Z,90.70
2019-06-01T06:40:47.645Z,90.60
2019-06-01T06:43:20.064Z,90.40
2019-06-01T06:45:44.908Z,90.30
2019-06-01T06:48:12.735Z,90.30
2019-06-01T06:50:40.531Z,90.40
2019-06-01T06:53:08.077Z,90.30
2019-06-01T06:55:35.610Z,90.40
2019-06-01T06:58:03.159Z,90.50
2019-06-01T07:00:30.708Z,90.40
2019-06-01T07:02:58.547Z,90.00
2019-06-01T07:05:27.764Z,90.10
2019-06-01T07:07:55.924Z,89.80
2019-06-01T07:10:24.252Z,90.00
2019-06-01T07:12:51.872Z,90.00
2019-06-01T07:15:19.423Z,89.80
2019-06-01T07:17:46.949Z,89.50
2019-06-01T07:20:14.829Z,88.90
2019-06-01T07:22:42.366Z,88.40
2019-06-01T07:25:09.999Z,87.90
2019-06-01T07:27:37.545Z,87.50
2019-06-01T07:30:05.149Z,87.10
2019-06-01T07:32:32.903Z,85.70
2019-06-01T07:35:01.385Z,84.80
2019-06-01T07:37:29.425Z,84.10
2019-06-01T07:39:56.971Z,83.60
2019-06-01T07:42:26.270Z,82.50
2019-06-01T07:44:54.249Z,81.90
2019-06-01T07:47:22.766Z,80.80
2019-06-01T07:49:50.405Z,80.80
2019-06-01T07:52:18.111Z,77.90
2019-06-01T07:54:45.768Z,77.20
2019-06-01T07:57:13.305Z,73.40
2019-06-01T07:59:41.208Z,71.90
2019-06-01T08:02:08.760Z,70.90
2019-06-01T08:04:52.800Z,68.80
2019-06-01T08:07:05.876Z,68.10
2019-06-01T08:09:35.041Z,66.60
2019-06-01T08:12:02.626Z,65.90
2019-06-01T08:14:30.583Z,66.50
2019-06-01T08:16:58.246Z,65.20
2019-06-01T08:19:26.027Z,63.20
2019-06-01T08:21:53.789Z,62.10
2019-06-01T08:24:22.164Z,59.30
2019-06-01T08:26:50.110Z,57.30
2019-06-01T08:29:17.970Z,54.60
2019-06-01T08:31:45.505Z,55.00
2019-06-01T08:34:13.052Z,54.90
2019-06-01T08:36:40.589Z,56.00
2019-06-01T08:39:08.152Z,54.70
2019-06-01T08:41:35.702Z,53.20
2019-06-01T08:44:03.237Z,50.60
2019-06-01T08:46:31.738Z,52.20
2019-06-01T08:48:59.396Z,52.30
2019-06-01T08:51:28.126Z,51.00
2019-06-01T08:53:55.865Z,51.30
2019-06-01T08:56:24.211Z,52.70
2019-06-01T08:58:52.273Z,50.20
2019-06-01T09:01:20.636Z,50.60
2019-06-01T09:03:48.202Z,48.90
2019-06-01T09:06:15.796Z,48.20
2019-06-01T09:08:43.328Z,49.40
2019-06-01T09:11:10.881Z,48.70
2019-06-01T09:13:38.416Z,50.20
2019-06-01T09:16:05.964Z,49.10
2019-06-01T09:18:33.743Z,48.10
2019-06-01T09:21:01.453Z,48.80
2019-06-01T09:23:29.554Z,49.20
2019-06-01T09:25:57.217Z,46.30
2019-06-01T09:28:25.755Z,44.40
2019-06-01T09:30:53.373Z,42.50
2019-06-01T09:33:20.910Z,43.70
2019-06-01T09:35:55.982Z,43.50
2019-06-01T09:38:17.786Z,41.90
2019-06-01T09:40:45.776Z,42.30
2019-06-01T09:43:13.414Z,43.30
2019-06-01T09:45:40.956Z,45.00
2019-06-01T09:48:08.724Z,41.50
2019-06-01T09:50:36.281Z,43.30
2019-06-01T09:53:04.287Z,42.10
2019-06-01T09:55:32.676Z,42.00
2019-06-01T09:58:00.829Z,41.60
2019-06-01T10:00:28.387Z,41.80
2019-06-01T10:02:55.914Z,43.20
2019-06-01T10:05:23.461Z,43.10
2019-06-01T10:07:50.998Z,42.70
2019-06-01T10:10:18.549Z,45.10
2019-06-01T10:12:46.328Z,43.10
2019-06-01T10:15:13.872Z,42.40
2019-06-01T10:17:41.469Z,44.40
2019-06-01T10:20:09.432Z,40.80
2019-06-01T10:22:37.279Z,41.90
2019-06-01T10:25:07.837Z,40.30
2019-06-01T10:27:36.731Z,43.40
2019-06-01T10:30:07.419Z,43.20
2019-06-01T10:32:35.697Z,41.60
2019-06-01T10:35:05.018Z,42.00
2019-06-01T10:37:33.355Z,42.40
2019-06-01T10:40:00.977Z,42.30
2019-06-01T10:42:28.537Z,42.60
2019-06-01T10:44:56.155Z,43.30
2019-06-01T10:47:23.708Z,45.00
2019-06-01T10:49:51.244Z,44.20
2019-06-01T10:52:18.888Z,44.60
2019-06-01T10:54:46.431Z,41.90
2019-06-01T10:57:13.981Z,41.10
2019-06-01T10:59:42.570Z,40.60
2019-06-01T11:02:10.236Z,39.60
2019-06-01T11:04:38.938Z,41.40
2019-06-01T11:07:06.602Z,41.30
2019-06-01T11:09:34.875Z,43.10
2019-06-01T11:12:02.564Z,42.90
2019-06-01T11:14:30.109Z,42.80
2019-06-01T11:16:57.656Z,39.70
2019-06-01T11:19:25.185Z,43.70
2019-06-01T11:21:52.733Z,44.10
2019-06-01T11:24:20.289Z,40.60
2019-06-01T11:26:47.835Z,40.60
2019-06-01T11:29:15.375Z,41.30
2019-06-01T11:31:44.201Z,41.80
2019-06-01T11:34:11.893Z,43.40
2019-06-01T11:36:58.637Z,42.80
2019-06-01T11:39:08.974Z,41.60
2019-06-01T11:41:36.516Z,41.00
2019-06-01T11:44:04.060Z,43.20
2019-06-01T11:46:31.888Z,39.60
2019-06-01T11:48:59.425Z,42.40
2019-06-01T11:51:27.081Z,38.90
2019-06-01T11:53:54.725Z,38.20
2019-06-01T11:56:22.296Z,40.10
2019-06-01T11:58:49.837Z,41.80
2019-06-01T12:01:17.388Z,38.10
2019-06-01T12:03:46.211Z,42.60
2019-06-01T12:06:13.927Z,42.90
2019-06-01T12:08:42.246Z,41.60
2019-06-01T12:11:09.893Z,41.80
2019-06-01T12:13:38.102Z,41.60
2019-06-01T12:16:05.752Z,39.70
2019-06-01T12:18:33.290Z,40.30
2019-06-01T12:21:00.824Z,40.40
2019-06-01T12:23:28.374Z,43.80
2019-06-01T12:25:55.934Z,42.20
2019-06-01T12:28:23.464Z,42.80
2019-06-01T12:30:51.277Z,44.30
2019-06-01T12:33:18.832Z,40.50
2019-06-01T12:35:46.414Z,43.20
2019-06-01T12:38:14.286Z,43.90
2019-06-01T12:40:41.873Z,41.50
2019-06-01T12:43:09.525Z,42.30
2019-06-01T12:45:37.053Z,42.00
2019-06-01T12:48:04.648Z,43.90
2019-06-01T12:50:32.176Z,45.00
2019-06-01T12:52:59.724Z,41.60
2019-06-01T12:55:27.594Z,42.70
2019-06-01T12:57:55.149Z,40.00
2019-06-01T13:00:23.081Z,40.50
2019-06-01T13:03:02.033Z,40.60
2019-06-01T13:05:20.031Z,40.90
2019-06-01T13:07:58.617Z,38.50
2019-06-01T13:10:16.904Z,41.30
2019-06-01T13:12:45.205Z,39.00
2019-06-01T13:15:12.859Z,38.30
2019-06-01T13:17:41.022Z,38.10
2019-06-01T13:20:08.920Z,38.90
2019-06-01T13:22:36.473Z,40.60
2019-06-01T13:25:04.499Z,39.30
2019-06-01T13:27:32.423Z,38.50
2019-06-01T13:29:59.957Z,38.70
2019-06-01T13:32:27.504Z,42.60
2019-06-01T13:34:55.302Z,41.70
2019-06-01T13:37:22.855Z,39.30
2019-06-01T13:39:55.800Z,40.30
2019-06-01T13:42:20.029Z,41.30
2019-06-01T13:44:49.415Z,39.20
2019-06-01T13:47:17.123Z,39.40
2019-06-01T13:49:46.425Z,38.40
2019-06-01T13:52:13.941Z,40.60
2019-06-01T13:54:41.481Z,41.60
2019-06-01T13:57:09.127Z,40.50
2019-06-01T13:59:36.725Z,37.00
2019-06-01T14:02:04.338Z,40.40
2019-06-01T14:04:31.976Z,42.80
2019-06-01T14:06:59.518Z,40.30
2019-06-01T14:09:27.064Z,40.70
2019-06-01T14:11:55.558Z,39.60
2019-06-01T14:14:23.225Z,43.00
2019-06-01T14:16:51.745Z,40.20
2019-06-01T14:19:19.431Z,43.50
2019-06-01T14:21:47.815Z,44.30
2019-06-01T14:24:15.511Z,40.90
2019-06-01T14:26:43.048Z,40.40
2019-06-01T14:29:10.604Z,42.00
2019-06-01T14:31:38.138Z,42.70
2019-06-01T14:34:05.686Z,41.20
2019-06-01T14:36:33.514Z,43.30
2019-06-01T14:39:01.066Z,40.50
2019-06-01T14:41:28.593Z,40.40
2019-06-01T14:43:56.365Z,42.30
2019-06-01T14:46:24.137Z,39.50
2019-06-01T14:48:51.686Z,41.00
2019-06-01T14:51:19.220Z,41.30
2019-06-01T14:53:47.514Z,43.30
2019-06-01T14:56:15.433Z,42.40
2019-06-01T14:58:42.965Z,40.80
2019-06-01T15:01:10.567Z,41.40
2019-06-01T15:03:38.117Z,43.00
2019-06-01T15:06:05.652Z,41.10
2019-06-01T15:08:33.525Z,42.70
2019-06-01T15:11:01.065Z,40.50
2019-06-01T15:13:28.612Z,44.50
2019-06-01T15:15:57.576Z,43.10
2019-06-01T15:18:25.507Z,42.00
2019-06-01T15:20:53.802Z,41.90
2019-06-01T15:23:21.552Z,43.60
2019-06-01T15:25:50.263Z,40.90
2019-06-01T15:28:17.913Z,43.40
2019-06-01T15:30:46.226Z,44.60
2019-06-01T15:33:13.773Z,45.20
2019-06-01T15:35:41.309Z,45.10
2019-06-01T15:38:08.857Z,45.50
2019-06-01T15:40:36.393Z,43.60
2019-06-01T15:43:03.928Z,46.40
2019-06-01T15:45:31.570Z,43.20
2019-06-01T15:47:59.802Z,45.40
2019-06-01T15:50:27.617Z,42.30
2019-06-01T15:52:55.295Z,45.50
2019-06-01T15:55:23.034Z,44.70
2019-06-01T15:57:50.581Z,44.00
2019-06-01T16:00:18.130Z,42.10
2019-06-01T16:02:45.664Z,45.10
2019-06-01T16:05:13.225Z,42.20
2019-06-01T16:07:40.761Z,42.60
2019-06-01T16:10:08.716Z,41.20
2019-06-01T16:12:36.445Z,42.90
2019-06-01T16:15:07.200Z,43.40
2019-06-01T16:17:34.733Z,42.80
2019-06-01T16:20:02.481Z,44.30
2019-06-01T16:22:30.037Z,41.90
2019-06-01T16:24:58.135Z,44.00
2019-06-01T16:27:25.821Z,43.70
2019-06-01T16:29:54.568Z,45.80
2019-06-01T16:32:22.307Z,44.40
2019-06-01T16:34:50.105Z,46.60
2019-06-01T16:37:17.646Z,46.30
2019-06-01T16:39:58.291Z,47.10
2019-06-01T16:42:14.716Z,45.00
2019-06-01T16:44:42.260Z,44.20
2019-06-01T16:47:09.800Z,44.60
2019-06-01T16:49:37.353Z,44.90
2019-06-01T16:52:05.208Z,44.10
2019-06-01T16:54:32.905Z,44.30
2019-06-01T16:57:00.447Z,46.60
2019-06-01T16:59:28.002Z,44.50
2019-06-01T17:01:56.505Z,43.90
2019-06-01T17:04:24.256Z,44.30
2019-06-01T17:06:51.793Z,43.80
2019-06-01T17:09:19.718Z,47.60
2019-06-01T17:11:47.259Z,46.60
2019-06-01T17:14:14.792Z,45.30
2019-06-01T17:16:42.367Z,46.10
2019-06-01T17:19:09.900Z,45.60
2019-06-01T17:21:37.720Z,46.30
2019-06-01T17:24:06.033Z,48.60
2019-06-01T17:26:33.684Z,49.80
2019-06-01T17:29:02.142Z,50.50
2019-06-01T17:31:29.944Z,45.50
2019-06-01T17:33:58.325Z,48.30
2019-06-01T17:36:26.038Z,46.40
2019-06-01T17:38:53.577Z,46.90
2019-06-01T17:41:21.201Z,45.70
2019-06-01T17:43:48.737Z,49.00
2019-06-01T17:46:16.597Z,50.80
2019-06-01T17:48:44.139Z,50.00
2019-06-01T17:51:12.757Z,52.00
2019-06-01T17:53:42.043Z,51.60
2019-06-01T17:56:10.196Z,52.40
2019-06-01T17:58:37.791Z,51.10
2019-06-01T18:01:06.324Z,53.40
2019-06-01T18:03:34.058Z,52.70
2019-06-01T18:06:01.799Z,52.30
2019-06-01T18:08:29.532Z,53.10
2019-06-01T18:10:57.156Z,53.70
2019-06-01T18:13:25.076Z,54.60
2019-06-01T18:15:52.641Z,54.30
2019-06-01T18:18:20.508Z,54.60
2019-06-01T18:20:48.057Z,55.50
2019-06-01T18:23:15.596Z,55.00
2019-06-01T18:25:43.165Z,56.40
2019-06-01T18:28:17.099Z,55.10
2019-06-01T18:30:41.596Z,55.80
2019-06-01T18:33:09.134Z,55.20
2019-06-01T18:35:36.681Z,55.10
2019-06-01T18:38:05.567Z,55.50
2019-06-01T18:40:33.483Z,54.60
2019-06-01T18:43:03.646Z,54.90
2019-06-01T18:45:31.473Z,56.30
2019-06-01T18:47:59.251Z,56.20
2019-06-01T18:50:27.022Z,56.30
2019-06-01T18:52:54.619Z,55.80
2019-06-01T18:55:22.202Z,57.60
2019-06-01T18:57:51.914Z,57.40
2019-06-01T19:00:19.449Z,57.60
2019-06-01T19:02:47.324Z,58.00
2019-06-01T19:05:15.526Z,58.20
2019-06-01T19:07:43.225Z,57.50
2019-06-01T19:10:12.630Z,57.70
2019-06-01T19:12:40.342Z,58.90
2019-06-01T19:15:17.042Z,59.20
2019-06-01T19:17:37.501Z,58.40
2019-06-01T19:20:06.569Z,58.30
2019-06-01T19:22:34.345Z,58.00
2019-06-01T19:25:01.899Z,57.20
2019-06-01T19:27:29.449Z,58.20
2019-06-01T19:29:56.984Z,57.00
2019-06-01T19:32:24.533Z,57.10
2019-06-01T19:34:52.374Z,57.90
2019-06-01T19:37:21.049Z,57.90
2019-06-01T19:39:48.597Z,57.40
2019-06-01T19:42:17.457Z,57.20
2019-06-01T19:44:45.108Z,57.90
2019-06-01T19:47:13.834Z,56.60
2019-06-01T19:49:43.862Z,56.40
2019-06-01T19:52:10.889Z,56.80
2019-06-01T19:54:38.449Z,57.90
2019-06-01T19:57:06.018Z,56.30
2019-06-01T19:59:33.896Z,58.00
2019-06-01T20:02:01.429Z,57.80
2019-06-01T20:04:28.980Z,58.70
2019-06-01T20:06:56.527Z,58.90
2019-06-01T20:09:24.170Z,59.40
2019-06-01T20:12:01.339Z,58.50
2019-06-01T20:14:20.993Z,60.60
2019-06-01T20:16:48.896Z,59.80
2019-06-01T20:19:17.718Z,60.60
2019-06-01T20:21:45.452Z,60.60
2019-06-01T20:24:13.124Z,60.90
2019-06-01T20:26:48.768Z,61.20
2019-06-01T20:29:12.288Z,60.60
2019-06-01T20:31:39.257Z,60.60
2019-06-01T20:34:06.793Z,60.80
2019-06-01T20:36:34.340Z,61.10
2019-06-01T20:39:04.317Z,61.60
2019-06-01T20:41:31.212Z,62.00
2019-06-01T20:43:58.744Z,62.60
2019-06-01T20:46:26.548Z,61.40
2019-06-01T20:48:54.163Z,61.10
2019-06-01T20:51:25.168Z,62.20
2019-06-01T20:53:51.279Z,62.20
2019-06-01T20:56:19.445Z,62.40
2019-06-01T20:58:47.128Z,62.90
2019-06-01T21:01:15.602Z,62.20
2019-06-01T21:03:43.307Z,62.50
2019-06-01T21:06:10.862Z,62.80
2019-06-01T21:08:38.388Z,62.80
2019-06-01T21:11:05.936Z,62.60
2019-06-01T21:13:33.476Z,62.30
2019-06-01T21:16:01.086Z,63.90
2019-06-01T21:18:28.623Z,62.60
2019-06-01T21:20:56.168Z,64.50
2019-06-01T21:23:25.083Z,61.70
2019-06-01T21:25:52.949Z,63.60
2019-06-01T21:28:22.077Z,65.10
2019-06-01T21:30:49.748Z,63.90
2019-06-01T21:33:17.368Z,65.90
2019-06-01T21:35:44.912Z,65.60
2019-06-01T21:38:12.457Z,63.10
2019-06-01T21:40:40.000Z,63.70
2019-06-01T21:43:23.633Z,64.70
2019-06-01T21:45:36.878Z,64.60
2019-06-01T21:48:04.414Z,66.20
2019-06-01T21:50:31.967Z,65.20
2019-06-01T21:52:59.500Z,64.50
2019-06-01T21:55:27.048Z,63.20
2019-06-01T21:57:54.580Z,63.80
2019-06-01T22:00:28.160Z,64.50
2019-06-01T22:02:55.693Z,65.10
2019-06-01T22:05:23.247Z,66.20
2019-06-01T22:07:51.068Z,66.00
2019-06-01T22:10:19.102Z,65.70
2019-06-01T22:12:46.802Z,65.50
2019-06-01T22:15:14.672Z,67.70
2019-06-01T22:17:42.215Z,65.60
2019-06-01T22:20:09.808Z,64.30
2019-06-01T22:22:37.357Z,66.60
2019-06-01T22:25:05.264Z,66.50
2019-06-01T22:27:32.823Z,68.40
2019-06-01T22:30:00.360Z,67.50
2019-06-01T22:32:30.035Z,67.10
2019-06-01T22:34:57.169Z,66.20
2019-06-01T22:37:25.789Z,67.10
2019-06-01T22:39:53.430Z,67.60
2019-06-01T22:42:22.070Z,67.90
2019-06-01T22:44:49.988Z,67.70
2019-06-01T22:47:17.548Z,68.90
2019-06-01T22:49:45.133Z,69.80
2019-06-01T22:52:12.681Z,69.30
2019-06-01T22:54:40.289Z,70.10
2019-06-01T22:57:07.882Z,69.50
2019-06-01T22:59:35.468Z,70.00
2019-06-01T23:02:03.020Z,71.30
2019-06-01T23:04:31.368Z,71.50
2019-06-01T23:06:58.991Z,72.00
2019-06-01T23:09:27.416Z,73.20
2019-06-01T23:11:55.044Z,72.30
2019-06-01T23:14:23.339Z,71.40
2019-06-01T23:16:51.141Z,71.00
2019-06-01T23:19:18.720Z,72.30
2019-06-01T23:21:46.266Z,72.40
2019-06-01T23:24:13.835Z,72.60
2019-06-01T23:26:41.404Z,71.70
2019-06-01T23:29:09.243Z,73.30
2019-06-01T23:31:36.793Z,73.00
2019-06-01T23:34:04.328Z,73.00
2019-06-01T23:36:32.832Z,73.90
2019-06-01T23:39:00.585Z,74.50
2019-06-01T23:41:28.739Z,74.40
2019-06-01T23:44:10.510Z,75.80
2019-06-01T23:46:26.883Z,74.80
2019-06-01T23:48:54.537Z,74.90
2019-06-01T23:51:23.281Z,74.30
2019-06-01T23:53:50.992Z,75.00
2019-06-01T23:56:18.542Z,75.10
2019-06-01T23:58:46.406Z,75.40
